< < Back
Terminal Aerodrome Forecast


Current Version              Previous Versions:   1  2  3  4  5  6  7  8  9  

Terminal Aerodrome Forecast

745
FTUS44 KBMX 041939 AAA
TAFBHM
TAF AMD
KBHM 041939Z 0420/0518 30012G20KT P6SM SCT050
     FM050000 30014G22KT P6SM VCSH BKN050
     FM050200 30010G18KT P6SM FEW050
     FM050500 35005KT P6SM SKC=

Latest METAR

059
SAUS70 KWBC 052000
MTRBHM
METAR KBHM 051953Z 32012G24KT 10SM BKN075 20/03 A2985 RMK AO2 PK WND
30026/1921 SLP104 T02000028


USA.gov is the U.S. government's official web portal to all federal, state and local government web resources and services.